createdAt,value
2017-08-19T00:00:27.368Z,6.63
2017-08-19T00:02:56.137Z,6.57
2017-08-19T00:05:23.706Z,5.77
2017-08-19T00:07:51.224Z,13.83
2017-08-19T00:10:18.730Z,16.73
2017-08-19T00:12:46.193Z,5.23
2017-08-19T00:15:14.428Z,6.03
2017-08-19T00:17:41.925Z,7.40
2017-08-19T00:20:10.159Z,13.50
2017-08-19T00:22:37.658Z,8.00
2017-08-19T00:25:05.891Z,11.87
2017-08-19T00:27:33.354Z,10.60
2017-08-19T00:30:00.852Z,6.00
2017-08-19T00:32:29.128Z,6.90
2017-08-19T00:34:57.388Z,7.80
2017-08-19T00:37:24.854Z,6.80
2017-08-19T00:39:53.119Z,10.80
2017-08-19T00:42:20.676Z,11.37
2017-08-19T00:44:48.230Z,8.90
2017-08-19T00:47:15.704Z,10.23
2017-08-19T00:49:43.955Z,7.67
2017-08-19T00:52:11.472Z,12.13
2017-08-19T00:54:38.992Z,25.43
2017-08-19T00:57:06.449Z,22.63
2017-08-19T00:59:34.682Z,17.80
2017-08-19T01:02:02.177Z,14.77
2017-08-19T01:04:29.748Z,14.50
2017-08-19T01:06:58.019Z,16.20
2017-08-19T01:09:26.246Z,10.67
2017-08-19T01:11:53.727Z,15.67
2017-08-19T01:14:21.178Z,11.20
2017-08-19T01:16:48.666Z,14.37
2017-08-19T01:19:16.883Z,18.40
2017-08-19T01:21:44.343Z,15.73
2017-08-19T01:24:11.831Z,19.70
2017-08-19T01:26:59.907Z,14.67
2017-08-19T01:29:27.398Z,11.43
2017-08-19T01:31:54.867Z,25.10
2017-08-19T01:34:22.323Z,17.83
2017-08-19T01:36:51.027Z,13.63
2017-08-19T01:39:18.591Z,16.30
2017-08-19T01:41:46.148Z,22.00
2017-08-19T01:44:13.619Z,14.50
2017-08-19T01:46:41.847Z,19.90
2017-08-19T01:49:09.315Z,30.37
2017-08-19T01:51:36.828Z,25.47
2017-08-19T01:54:04.305Z,21.73
2017-08-19T01:56:31.773Z,23.50
2017-08-19T01:58:59.289Z,25.43
2017-08-19T02:01:27.524Z,33.07
2017-08-19T02:03:55.000Z,22.47
2017-08-19T02:06:23.246Z,24.63
2017-08-19T02:08:50.735Z,18.33
2017-08-19T02:11:18.218Z,20.00
2017-08-19T02:13:45.698Z,31.40
2017-08-19T02:16:13.162Z,29.90
2017-08-19T02:18:40.622Z,20.23
2017-08-19T02:21:08.098Z,21.23
2017-08-19T02:23:35.629Z,18.33
2017-08-19T02:26:03.087Z,15.93
2017-08-19T02:28:30.590Z,21.10
2017-08-19T02:30:58.062Z,12.00
2017-08-19T02:33:25.519Z,13.20
2017-08-19T02:35:53.761Z,14.57
2017-08-19T02:38:21.224Z,21.03
2017-08-19T02:40:48.795Z,20.13
2017-08-19T02:43:16.256Z,19.23
2017-08-19T02:45:44.480Z,14.17
2017-08-19T02:48:11.941Z,20.00
2017-08-19T02:50:39.418Z,17.23
2017-08-19T02:53:06.878Z,21.83
2017-08-19T02:55:34.463Z,18.80
2017-08-19T02:58:02.701Z,35.10
2017-08-19T03:00:30.192Z,20.80
2017-08-19T03:02:57.653Z,33.50
2017-08-19T03:05:25.895Z,20.97
2017-08-19T03:07:53.380Z,28.40
2017-08-19T03:10:20.840Z,20.90
2017-08-19T03:12:49.083Z,20.60
2017-08-19T03:15:16.563Z,19.13
2017-08-19T03:17:44.032Z,23.73
2017-08-19T03:20:12.345Z,28.80
2017-08-19T03:22:40.063Z,20.00
2017-08-19T03:25:07.531Z,23.87
2017-08-19T03:27:36.766Z,21.43
2017-08-19T03:30:04.233Z,35.90
2017-08-19T03:32:31.726Z,23.30
2017-08-19T03:34:59.207Z,20.30
2017-08-19T03:37:27.428Z,26.77
2017-08-19T03:39:54.891Z,29.60
2017-08-19T03:42:22.385Z,14.97
2017-08-19T03:44:50.615Z,36.40
2017-08-19T03:47:18.084Z,27.03
2017-08-19T03:49:45.558Z,27.20
2017-08-19T03:52:13.120Z,19.10
2017-08-19T03:54:40.596Z,41.47
2017-08-19T03:57:08.852Z,30.23
2017-08-19T03:59:36.418Z,23.70
2017-08-19T04:02:04.687Z,23.00
2017-08-19T04:04:32.161Z,32.13
2017-08-19T04:07:00.400Z,24.30
2017-08-19T04:09:27.863Z,32.43
2017-08-19T04:11:55.346Z,31.73
2017-08-19T04:14:23.567Z,19.33
2017-08-19T04:16:51.061Z,36.73
2017-08-19T04:19:18.523Z,38.17
2017-08-19T04:21:46.769Z,41.03
2017-08-19T04:24:14.236Z,38.80
2017-08-19T04:26:41.702Z,27.70
2017-08-19T04:29:09.240Z,32.43
2017-08-19T04:31:36.734Z,24.50
2017-08-19T04:34:04.971Z,30.97
2017-08-19T04:36:32.437Z,20.50
2017-08-19T04:38:59.902Z,28.83
2017-08-19T04:41:27.374Z,27.33
2017-08-19T04:43:55.639Z,19.70
2017-08-19T04:46:23.103Z,17.40
2017-08-19T04:48:50.580Z,17.97
2017-08-19T04:51:18.123Z,13.93
2017-08-19T04:53:45.584Z,14.27
2017-08-19T04:56:13.092Z,15.93
2017-08-19T04:58:40.542Z,18.50
2017-08-19T05:01:08.435Z,10.87
2017-08-19T05:03:37.040Z,23.33
2017-08-19T05:06:04.600Z,22.97
2017-08-19T05:08:32.576Z,15.50
2017-08-19T05:11:00.819Z,17.00
2017-08-19T05:13:28.295Z,28.03
2017-08-19T05:15:55.770Z,22.23
2017-08-19T05:18:23.315Z,24.90
2017-08-19T05:20:50.787Z,15.63
2017-08-19T05:23:19.052Z,16.40
2017-08-19T05:25:47.283Z,21.80
2017-08-19T05:28:14.751Z,21.67
2017-08-19T05:30:42.215Z,20.37
2017-08-19T05:33:09.789Z,19.87
2017-08-19T05:35:37.274Z,30.40
2017-08-19T05:38:04.809Z,29.67
2017-08-19T05:40:33.060Z,28.00
2017-08-19T05:43:00.516Z,31.73
2017-08-19T05:45:27.985Z,34.43
2017-08-19T05:47:55.470Z,48.17
2017-08-19T05:50:24.509Z,23.90
2017-08-19T05:52:51.964Z,27.90
2017-08-19T05:55:19.470Z,31.53
2017-08-19T05:57:46.935Z,35.07
2017-08-19T06:00:14.400Z,27.83
2017-08-19T06:02:41.944Z,17.80
2017-08-19T06:05:10.179Z,21.93
2017-08-19T06:07:37.671Z,22.97
2017-08-19T06:10:05.932Z,21.73
2017-08-19T06:12:33.399Z,33.20
2017-08-19T06:15:01.672Z,31.87
2017-08-19T06:17:29.923Z,26.83
2017-08-19T06:19:57.381Z,16.63
2017-08-19T06:22:24.851Z,31.57
2017-08-19T06:24:52.424Z,16.57
2017-08-19T06:27:20.665Z,15.93
2017-08-19T06:29:48.126Z,18.60
2017-08-19T06:32:16.600Z,24.30
2017-08-19T06:34:44.884Z,20.60
2017-08-19T06:37:12.356Z,27.27
2017-08-19T06:39:39.831Z,21.03
2017-08-19T06:42:08.076Z,24.60
2017-08-19T06:44:35.550Z,16.47
2017-08-19T06:47:03.023Z,23.60
2017-08-19T06:49:31.265Z,26.97
2017-08-19T06:51:58.735Z,25.10
2017-08-19T06:54:26.203Z,18.77
2017-08-19T06:56:53.659Z,13.10
2017-08-19T06:59:21.891Z,14.50
2017-08-19T07:01:49.375Z,15.03
2017-08-19T07:04:16.838Z,12.27
2017-08-19T07:06:45.076Z,20.30
2017-08-19T07:09:12.563Z,12.20
2017-08-19T07:11:40.131Z,5.30
2017-08-19T07:14:07.692Z,11.30
2017-08-19T07:16:35.927Z,6.87
2017-08-19T07:19:03.408Z,18.33
2017-08-19T07:21:30.863Z,6.33
2017-08-19T07:23:58.432Z,11.80
2017-08-19T07:26:25.891Z,5.93
2017-08-19T07:28:53.378Z,8.63
2017-08-19T07:31:20.901Z,5.83
2017-08-19T07:33:48.368Z,10.93
2017-08-19T07:36:16.652Z,6.20
2017-08-19T07:38:44.897Z,6.40
2017-08-19T07:41:12.379Z,13.47
2017-08-19T07:43:40.651Z,6.97
2017-08-19T07:46:08.879Z,14.23
2017-08-19T07:48:36.383Z,13.93
2017-08-19T07:51:04.626Z,4.40
2017-08-19T07:53:32.093Z,4.70
2017-08-19T07:55:59.552Z,9.13
2017-08-19T07:58:27.144Z,11.53
2017-08-19T08:00:55.379Z,15.07
2017-08-19T08:03:22.876Z,7.37
2017-08-19T08:05:51.106Z,6.37
2017-08-19T08:08:18.563Z,3.03
2017-08-19T08:10:46.028Z,9.93
2017-08-19T08:13:13.502Z,3.10
2017-08-19T08:15:41.119Z,3.63
2017-08-19T08:18:08.612Z,4.33
2017-08-19T08:20:36.172Z,5.43
2017-08-19T08:23:04.499Z,2.70
2017-08-19T08:25:32.006Z,2.13
2017-08-19T08:27:59.712Z,5.50
2017-08-19T08:30:28.144Z,3.53
2017-08-19T08:32:55.751Z,3.33
2017-08-19T08:35:23.228Z,2.83
2017-08-19T08:40:24.699Z,21.43
2017-08-19T08:42:52.158Z,4.80
2017-08-19T08:45:19.660Z,4.10
2017-08-19T08:47:47.905Z,3.27
2017-08-19T08:50:15.434Z,2.80
2017-08-19T08:52:42.886Z,2.57
2017-08-19T08:55:10.709Z,4.60
2017-08-19T08:57:38.975Z,4.07
2017-08-19T09:00:06.443Z,4.40
2017-08-19T09:02:35.025Z,2.00
2017-08-19T09:05:02.484Z,10.17
2017-08-19T09:07:30.712Z,3.50
2017-08-19T09:09:58.242Z,4.23
2017-08-19T09:12:25.727Z,6.33
2017-08-19T09:14:53.228Z,3.80
2017-08-19T09:17:20.748Z,2.50
2017-08-19T09:19:48.292Z,3.37
2017-08-19T09:22:15.802Z,6.23
2017-08-19T09:24:43.263Z,8.20
2017-08-19T09:27:11.531Z,3.93
2017-08-19T09:29:38.995Z,5.40
2017-08-19T09:32:07.252Z,7.50
2017-08-19T09:34:34.720Z,4.40
2017-08-19T09:37:02.175Z,5.70
2017-08-19T09:39:30.545Z,5.33
2017-08-19T09:41:58.113Z,3.03
2017-08-19T09:44:26.026Z,4.57
2017-08-19T09:46:53.924Z,1.07
2017-08-19T09:49:21.380Z,6.50
2017-08-19T09:51:48.892Z,2.03
2017-08-19T09:54:17.004Z,3.63
2017-08-19T09:56:44.479Z,1.87
2017-08-19T09:59:11.939Z,3.63
2017-08-19T10:01:39.411Z,5.87
2017-08-19T10:04:07.643Z,5.27
2017-08-19T10:06:35.110Z,5.03
2017-08-19T10:09:23.185Z,3.63
2017-08-19T10:11:51.428Z,2.93
2017-08-19T10:14:18.900Z,5.57
2017-08-19T10:16:46.423Z,1.77
2017-08-19T10:19:13.902Z,4.10
2017-08-19T10:21:41.367Z,7.00
2017-08-19T10:24:08.838Z,3.90
2017-08-19T10:26:37.067Z,3.70
2017-08-19T10:29:04.589Z,6.30
2017-08-19T10:31:32.127Z,4.60
2017-08-19T10:34:00.374Z,5.30
2017-08-19T10:36:27.846Z,2.40
2017-08-19T10:38:55.439Z,2.00
2017-08-19T10:41:22.970Z,5.73
2017-08-19T10:43:50.556Z,1.63
2017-08-19T10:46:18.095Z,2.03
2017-08-19T10:48:46.333Z,3.97
2017-08-19T10:51:13.958Z,2.00
2017-08-19T10:53:41.569Z,3.20
2017-08-19T10:56:09.099Z,5.40
2017-08-19T10:58:37.081Z,3.50
2017-08-19T11:01:04.572Z,2.53
2017-08-19T11:03:32.051Z,11.70
2017-08-19T11:05:59.526Z,10.80
2017-08-19T11:08:27.752Z,5.93
2017-08-19T11:10:55.209Z,5.83
2017-08-19T11:13:22.673Z,9.00
2017-08-19T11:15:50.225Z,3.80
2017-08-19T11:18:17.703Z,3.73
2017-08-19T11:20:46.479Z,6.40
2017-08-19T11:23:14.755Z,9.77
2017-08-19T11:25:42.980Z,6.50
2017-08-19T11:28:10.486Z,7.70
2017-08-19T11:30:38.756Z,10.17
2017-08-19T11:33:06.233Z,8.53
2017-08-19T11:35:34.459Z,10.77
2017-08-19T11:38:01.937Z,8.10
2017-08-19T11:40:29.443Z,5.10
2017-08-19T11:42:56.971Z,6.87
2017-08-19T11:45:25.993Z,3.70
2017-08-19T11:47:53.451Z,8.47
2017-08-19T11:50:20.916Z,4.93
2017-08-19T11:52:48.476Z,8.67
2017-08-19T11:55:15.960Z,3.13
2017-08-19T11:57:43.415Z,9.40
2017-08-19T12:00:10.896Z,8.43
2017-08-19T12:02:38.451Z,2.40
2017-08-19T12:05:05.946Z,8.53
2017-08-19T12:07:33.458Z,4.73
2017-08-19T12:10:01.028Z,5.50
2017-08-19T12:12:28.488Z,6.70
2017-08-19T12:14:56.723Z,4.20
2017-08-19T12:17:24.193Z,3.90
2017-08-19T12:19:51.723Z,5.20
2017-08-19T12:22:19.646Z,5.57
2017-08-19T12:24:47.196Z,5.47
2017-08-19T12:27:14.652Z,5.40
2017-08-19T12:29:42.208Z,6.00
2017-08-19T12:32:09.719Z,8.77
2017-08-19T12:34:37.657Z,9.57
2017-08-19T12:37:05.217Z,4.00
2017-08-19T12:39:33.771Z,5.13
2017-08-19T12:42:02.791Z,5.63
2017-08-19T12:44:30.330Z,17.03
2017-08-19T12:46:57.816Z,6.73
2017-08-19T12:49:25.499Z,7.13
2017-08-19T12:51:52.956Z,4.43
2017-08-19T12:54:20.463Z,7.50
2017-08-19T12:56:47.919Z,4.17
2017-08-19T12:59:15.393Z,7.70
2017-08-19T13:01:43.656Z,6.53
2017-08-19T13:04:11.887Z,9.77
2017-08-19T13:06:39.363Z,6.17
2017-08-19T13:09:06.857Z,8.23
2017-08-19T13:11:35.096Z,9.50
2017-08-19T13:14:02.583Z,4.77
2017-08-19T13:16:30.889Z,5.80
2017-08-19T13:18:58.612Z,12.20
2017-08-19T13:21:26.079Z,8.90
2017-08-19T13:23:54.363Z,7.07
2017-08-19T13:26:21.837Z,5.50
2017-08-19T13:28:49.308Z,4.50
2017-08-19T13:31:16.827Z,8.03
2017-08-19T13:33:45.083Z,6.93
2017-08-19T13:36:12.608Z,7.00
2017-08-19T13:38:40.067Z,8.33
2017-08-19T13:41:08.231Z,5.33
2017-08-19T13:43:35.746Z,7.87
2017-08-19T13:46:04.008Z,5.50
2017-08-19T13:48:31.484Z,8.77
2017-08-19T13:50:59.161Z,4.40
2017-08-19T13:53:26.680Z,9.37
2017-08-19T13:55:54.156Z,7.27
2017-08-19T13:58:22.411Z,4.33
2017-08-19T14:00:49.971Z,4.70
2017-08-19T14:03:17.599Z,4.00
2017-08-19T14:05:45.187Z,4.83
2017-08-19T14:08:12.647Z,2.97
2017-08-19T14:10:40.124Z,5.70
2017-08-19T14:13:08.387Z,6.60
2017-08-19T14:15:35.844Z,3.90
2017-08-19T14:18:04.088Z,7.30
2017-08-19T14:20:31.543Z,7.50
2017-08-19T14:22:59.009Z,8.63
2017-08-19T14:25:27.204Z,4.63
2017-08-19T14:27:55.449Z,4.80
2017-08-19T14:30:22.944Z,5.43
2017-08-19T14:32:51.179Z,5.37
2017-08-19T14:35:18.683Z,8.00
2017-08-19T14:37:46.944Z,9.30
2017-08-19T14:40:15.225Z,4.97
2017-08-19T14:42:43.471Z,4.83
2017-08-19T14:45:10.932Z,8.90
2017-08-19T14:47:38.416Z,4.20
2017-08-19T14:50:06.675Z,3.10
2017-08-19T14:52:34.193Z,4.40
2017-08-19T14:55:02.526Z,3.97
2017-08-19T14:57:30.760Z,6.63
2017-08-19T14:59:58.296Z,5.03
2017-08-19T15:02:25.822Z,3.20
2017-08-19T15:04:54.060Z,3.07
2017-08-19T15:07:21.547Z,5.20
2017-08-19T15:09:49.796Z,8.07
2017-08-19T15:12:17.277Z,5.43
2017-08-19T15:14:45.546Z,5.73
2017-08-19T15:17:13.118Z,5.57
2017-08-19T15:19:41.352Z,7.00
2017-08-19T15:22:08.834Z,5.27
2017-08-19T15:24:36.322Z,4.90
2017-08-19T15:27:03.850Z,4.90
2017-08-19T15:29:31.452Z,2.60
2017-08-19T15:31:59.272Z,7.33
2017-08-19T15:34:27.056Z,4.43
2017-08-19T15:36:54.608Z,7.13
2017-08-19T15:39:22.871Z,10.23
2017-08-19T15:41:50.348Z,6.53
2017-08-19T15:44:18.587Z,5.23
2017-08-19T15:46:46.093Z,6.10
2017-08-19T15:49:13.643Z,5.63
2017-08-19T15:51:41.875Z,5.87
2017-08-19T15:54:09.355Z,10.33
2017-08-19T15:56:36.866Z,6.73
2017-08-19T15:59:04.332Z,8.60
2017-08-19T16:01:31.895Z,5.80
2017-08-19T16:03:59.373Z,10.17
2017-08-19T16:06:26.831Z,5.80
2017-08-19T16:08:54.303Z,2.10
2017-08-19T16:11:22.531Z,3.37
2017-08-19T16:13:49.995Z,12.03
2017-08-19T16:16:17.583Z,7.70
2017-08-19T16:18:45.041Z,9.30
2017-08-19T16:21:12.608Z,7.13
2017-08-19T16:23:40.104Z,3.90
2017-08-19T16:26:07.576Z,6.83
2017-08-19T16:28:35.061Z,7.97
2017-08-19T16:31:02.640Z,2.73
2017-08-19T16:33:30.867Z,6.93
2017-08-19T16:35:58.328Z,6.20
2017-08-19T16:38:25.875Z,6.17
2017-08-19T16:40:53.320Z,5.23
2017-08-19T16:43:20.788Z,5.97
2017-08-19T16:45:48.415Z,5.77
2017-08-19T16:48:16.671Z,14.53
2017-08-19T16:50:44.132Z,5.83
2017-08-19T16:53:12.407Z,6.47
2017-08-19T16:55:41.381Z,4.37
2017-08-19T16:58:08.834Z,5.27
2017-08-19T17:00:36.585Z,5.03
2017-08-19T17:03:04.108Z,4.50
2017-08-19T17:05:31.564Z,6.90
2017-08-19T17:07:59.091Z,8.10
2017-08-19T17:10:27.218Z,5.80
2017-08-19T17:12:54.745Z,2.77
2017-08-19T17:15:22.221Z,7.27
2017-08-19T17:17:49.732Z,5.63
2017-08-19T17:20:17.195Z,7.50
2017-08-19T17:22:44.744Z,9.90
2017-08-19T17:25:12.309Z,11.40
2017-08-19T17:27:39.808Z,8.23
2017-08-19T17:30:07.422Z,7.27
2017-08-19T17:32:34.921Z,8.53
2017-08-19T17:35:02.452Z,8.20
2017-08-19T17:37:30.717Z,10.47
2017-08-19T17:39:58.287Z,9.37
2017-08-19T17:42:26.583Z,5.83
2017-08-19T17:44:54.107Z,5.87
2017-08-19T17:47:21.562Z,7.93
2017-08-19T17:49:49.127Z,9.73
2017-08-19T17:52:16.674Z,6.63
2017-08-19T17:54:44.139Z,9.73
2017-08-19T17:57:12.372Z,9.83
2017-08-19T17:59:39.856Z,7.53
2017-08-19T18:02:07.758Z,13.40
2017-08-19T18:04:35.975Z,7.50
2017-08-19T18:07:03.575Z,7.97
2017-08-19T18:09:31.843Z,15.90
2017-08-19T18:11:59.408Z,13.20
2017-08-19T18:14:26.914Z,4.90
2017-08-19T18:16:54.417Z,3.80
2017-08-19T18:19:21.915Z,6.50
2017-08-19T18:21:49.531Z,3.23
2017-08-19T18:24:16.994Z,8.90
2017-08-19T18:26:44.452Z,9.73
2017-08-19T18:29:11.936Z,17.20
2017-08-19T18:31:39.467Z,11.13
2017-08-19T18:34:07.695Z,10.17
2017-08-19T18:36:35.181Z,11.63
2017-08-19T18:39:02.655Z,6.10
2017-08-19T18:41:30.211Z,10.13
2017-08-19T18:43:57.967Z,7.83
2017-08-19T18:46:25.431Z,11.77
2017-08-19T18:48:53.705Z,7.43
2017-08-19T18:51:21.467Z,12.57
2017-08-19T18:53:48.921Z,15.83
2017-08-19T18:56:16.496Z,17.57
2017-08-19T18:58:44.988Z,11.10
2017-08-19T19:01:13.245Z,11.93
2017-08-19T19:03:40.720Z,12.43
2017-08-19T19:06:08.772Z,22.17
2017-08-19T19:08:36.368Z,10.67
2017-08-19T19:11:03.892Z,11.60
2017-08-19T19:13:32.127Z,14.50
2017-08-19T19:15:59.606Z,16.80
2017-08-19T19:18:27.072Z,7.20
2017-08-19T19:20:54.544Z,15.70
2017-08-19T19:23:22.803Z,11.50
2017-08-19T19:25:50.258Z,9.10
2017-08-19T19:28:17.741Z,9.23
2017-08-19T19:30:45.956Z,9.50
2017-08-19T19:33:13.419Z,12.60
2017-08-19T19:35:40.916Z,21.43
2017-08-19T19:38:08.375Z,9.50
2017-08-19T19:40:36.630Z,15.23
2017-08-19T19:43:04.208Z,9.20
2017-08-19T19:45:32.444Z,13.37
2017-08-19T19:47:59.922Z,9.20
2017-08-19T19:50:27.406Z,16.03
2017-08-19T19:52:54.987Z,7.27
2017-08-19T19:55:22.523Z,13.80
2017-08-19T19:57:50.785Z,19.97
2017-08-19T20:00:18.335Z,13.83
2017-08-19T20:02:45.800Z,15.63
2017-08-19T20:05:14.052Z,16.43
2017-08-19T20:07:41.524Z,11.07
2017-08-19T20:10:09.087Z,10.50
2017-08-19T20:12:37.431Z,12.60
2017-08-19T20:15:04.912Z,13.63
2017-08-19T20:17:32.375Z,12.00
2017-08-19T20:20:01.366Z,15.47
2017-08-19T20:22:28.948Z,16.93
2017-08-19T20:24:57.216Z,15.10
2017-08-19T20:27:25.459Z,14.00
2017-08-19T20:29:52.922Z,9.10
2017-08-19T20:32:20.503Z,27.27
2017-08-19T20:34:48.744Z,22.27
2017-08-19T20:37:16.232Z,15.60
2017-08-19T20:39:44.503Z,19.93
2017-08-19T20:42:12.755Z,21.23
2017-08-19T20:44:40.231Z,16.63
2017-08-19T20:47:08.590Z,19.67
2017-08-19T20:49:36.173Z,14.47
2017-08-19T20:52:03.632Z,33.60
2017-08-19T20:54:31.907Z,19.13
2017-08-19T20:57:00.158Z,21.83
2017-08-19T20:59:28.356Z,19.70
2017-08-19T21:01:55.903Z,19.00
2017-08-19T21:04:23.375Z,31.73
2017-08-19T21:06:51.654Z,14.93
2017-08-19T21:09:19.883Z,5.80
2017-08-19T21:11:47.366Z,5.00
2017-08-19T21:14:14.841Z,4.50
2017-08-19T21:16:43.193Z,6.97
2017-08-19T21:19:10.767Z,7.83
2017-08-19T21:21:38.336Z,6.50
2017-08-19T21:24:06.574Z,5.33
2017-08-19T21:26:34.039Z,10.17
2017-08-19T21:29:01.530Z,12.40
2017-08-19T21:31:29.792Z,3.83
2017-08-19T21:33:57.426Z,6.97
2017-08-19T21:36:24.891Z,13.67
2017-08-19T21:38:52.355Z,5.83
2017-08-19T21:41:19.826Z,8.30
2017-08-19T21:43:49.003Z,7.97
2017-08-19T21:46:16.459Z,5.23
2017-08-19T21:48:43.927Z,17.40
2017-08-19T21:51:11.388Z,10.03
2017-08-19T21:53:38.879Z,7.10
2017-08-19T21:56:06.405Z,5.23
2017-08-19T21:58:33.884Z,14.03
2017-08-19T22:01:02.132Z,7.10
2017-08-19T22:03:29.620Z,12.23
2017-08-19T22:05:57.256Z,10.63
2017-08-19T22:08:25.533Z,8.10
2017-08-19T22:10:53.013Z,7.17
2017-08-19T22:13:20.476Z,11.23
2017-08-19T22:15:47.970Z,11.80
2017-08-19T22:18:15.457Z,15.90
2017-08-19T22:20:42.920Z,10.90
2017-08-19T22:23:10.371Z,10.73
2017-08-19T22:25:38.613Z,19.80
2017-08-19T22:28:06.093Z,16.70
2017-08-19T22:30:33.572Z,11.00
2017-08-19T22:33:01.852Z,10.70
2017-08-19T22:35:30.088Z,16.03
2017-08-19T22:37:57.797Z,16.50
2017-08-19T22:40:26.032Z,13.53
2017-08-19T22:42:55.867Z,18.03
2017-08-19T22:45:25.756Z,8.63
2017-08-19T22:47:53.482Z,12.00
2017-08-19T22:50:20.954Z,13.43
2017-08-19T22:52:48.564Z,16.27
2017-08-19T22:55:16.271Z,10.87
2017-08-19T22:57:43.795Z,18.77
2017-08-19T23:00:12.792Z,10.30
2017-08-19T23:02:40.428Z,11.93
2017-08-19T23:05:07.884Z,20.30
2017-08-19T23:07:36.148Z,13.93
2017-08-19T23:10:03.615Z,17.37
2017-08-19T23:12:31.840Z,10.87
2017-08-19T23:14:59.310Z,15.90
2017-08-19T23:17:26.832Z,7.97
2017-08-19T23:19:54.387Z,10.03
2017-08-19T23:22:21.849Z,12.07
2017-08-19T23:24:49.425Z,8.93
2017-08-19T23:27:16.891Z,10.60
2017-08-19T23:29:44.452Z,6.70
2017-08-19T23:32:11.935Z,13.30
2017-08-19T23:34:39.521Z,9.37
2017-08-19T23:37:07.776Z,10.17
2017-08-19T23:39:35.407Z,8.93
2017-08-19T23:42:02.863Z,11.90
2017-08-19T23:44:30.318Z,7.03
2017-08-19T23:46:57.805Z,14.23
2017-08-19T23:49:25.275Z,11.07
2017-08-19T23:51:53.548Z,11.40
2017-08-19T23:54:21.823Z,13.47
2017-08-19T23:56:50.091Z,10.47
2017-08-19T23:59:17.646Z,13.90
